createdAt,value
2019-03-22T00:01:43.702Z,10.13
2019-03-22T00:02:43.739Z,10.15
2019-03-22T00:04:36.742Z,10.15
2019-03-22T00:05:36.777Z,10.12
2019-03-22T00:07:29.780Z,10.17
2019-03-22T00:08:29.816Z,10.12
2019-03-22T00:10:22.795Z,10.15
2019-03-22T00:11:22.850Z,10.07
2019-03-22T00:13:15.864Z,10.12
2019-03-22T00:14:15.892Z,10.10
2019-03-22T00:16:08.874Z,10.01
2019-03-22T00:17:08.935Z,9.98
2019-03-22T00:19:02.443Z,10.01
2019-03-22T00:20:02.472Z,9.97
2019-03-22T00:21:55.453Z,9.99
2019-03-22T00:22:55.613Z,9.92
2019-03-22T00:24:48.515Z,9.91
2019-03-22T00:25:48.555Z,9.91
2019-03-22T00:27:41.613Z,9.91
2019-03-22T00:28:41.594Z,9.87
2019-03-22T00:30:34.583Z,9.89
2019-03-22T00:31:34.629Z,9.92
2019-03-22T00:33:27.624Z,9.87
2019-03-22T00:34:27.674Z,9.91
2019-03-22T00:36:20.677Z,9.92
2019-03-22T00:37:20.750Z,9.91
2019-03-22T00:39:13.699Z,9.87
2019-03-22T00:40:13.759Z,9.89
2019-03-22T00:42:06.754Z,9.86
2019-03-22T00:43:06.832Z,9.80
2019-03-22T00:44:59.775Z,9.83
2019-03-22T00:45:59.838Z,9.80
2019-03-22T00:47:52.840Z,9.84
2019-03-22T00:48:52.880Z,9.91
2019-03-22T00:50:45.883Z,9.80
2019-03-22T00:51:45.919Z,9.84
2019-03-22T00:53:38.901Z,9.80
2019-03-22T00:54:38.994Z,9.77
2019-03-22T00:56:31.963Z,9.84
2019-03-22T00:57:32.007Z,9.77
2019-03-22T00:59:24.986Z,9.74
2019-03-22T01:00:25.046Z,9.73
2019-03-22T01:02:18.049Z,9.83
2019-03-22T01:03:18.090Z,9.79
2019-03-22T01:05:11.100Z,9.76
2019-03-22T01:06:11.126Z,9.76
2019-03-22T01:08:04.114Z,9.74
2019-03-22T01:09:04.214Z,9.73
2019-03-22T01:10:57.170Z,9.76
2019-03-22T01:11:57.201Z,9.76
2019-03-22T01:13:50.183Z,9.76
2019-03-22T01:14:50.242Z,9.68
2019-03-22T01:16:43.241Z,9.61
2019-03-22T01:17:43.284Z,9.61
2019-03-22T01:19:36.304Z,9.61
2019-03-22T01:20:36.317Z,9.64
2019-03-22T01:22:29.306Z,9.64
2019-03-22T01:23:29.463Z,9.65
2019-03-22T01:25:22.367Z,9.62
2019-03-22T01:26:22.398Z,9.61
2019-03-22T01:28:15.408Z,9.56
2019-03-22T01:29:15.443Z,9.54
2019-03-22T01:31:08.428Z,9.58
2019-03-22T01:32:08.486Z,9.51
2019-03-22T01:34:01.488Z,9.55
2019-03-22T01:35:01.530Z,9.58
2019-03-22T01:36:54.523Z,9.56
2019-03-22T01:37:54.570Z,9.55
2019-03-22T01:39:47.542Z,9.58
2019-03-22T01:40:47.601Z,9.55
2019-03-22T01:42:40.643Z,9.54
2019-03-22T01:43:40.644Z,9.55
2019-03-22T01:45:33.642Z,9.54
2019-03-22T01:46:33.679Z,9.47
2019-03-22T01:48:26.658Z,9.46
2019-03-22T01:49:26.716Z,9.44
2019-03-22T01:51:19.717Z,9.50
2019-03-22T01:52:19.810Z,9.41
2019-03-22T01:54:12.735Z,9.41
2019-03-22T01:55:12.791Z,9.43
2019-03-22T01:57:05.813Z,9.43
2019-03-22T01:58:05.852Z,9.37
2019-03-22T01:59:58.833Z,9.39
2019-03-22T02:00:58.894Z,9.36
2019-03-22T02:02:51.896Z,9.40
2019-03-22T02:03:51.932Z,9.40
2019-03-22T02:05:44.925Z,9.44
2019-03-22T02:06:44.972Z,9.39
2019-03-22T02:08:37.974Z,9.43
2019-03-22T02:09:38.013Z,9.40
2019-03-22T02:11:31.064Z,9.43
2019-03-22T02:12:31.122Z,9.41
2019-03-22T02:14:24.135Z,9.47
2019-03-22T02:15:24.161Z,9.37
2019-03-22T02:17:17.148Z,9.34
2019-03-22T02:18:17.201Z,9.41
2019-03-22T02:20:10.202Z,9.34
2019-03-22T02:21:10.242Z,9.29
2019-03-22T02:23:03.270Z,9.21
2019-03-22T02:24:03.319Z,9.25
2019-03-22T02:25:56.311Z,9.22
2019-03-22T02:26:56.353Z,9.22
2019-03-22T02:28:49.356Z,9.25
2019-03-22T02:29:49.394Z,9.25
2019-03-22T02:31:42.375Z,9.29
2019-03-22T02:32:42.440Z,9.29
2019-03-22T02:34:35.443Z,9.32
2019-03-22T02:35:35.475Z,9.29
2019-03-22T02:37:28.460Z,9.22
2019-03-22T02:38:28.516Z,9.26
2019-03-22T02:40:21.526Z,9.21
2019-03-22T02:41:21.554Z,9.32
2019-03-22T02:43:14.584Z,9.22
2019-03-22T02:44:14.610Z,9.18
2019-03-22T02:46:07.579Z,9.25
2019-03-22T02:47:07.635Z,9.25
2019-03-22T02:49:00.649Z,9.22
2019-03-22T02:50:11.627Z,9.19
2019-03-22T02:51:53.679Z,9.23
2019-03-22T02:52:53.711Z,9.19
2019-03-22T02:54:46.717Z,9.25
2019-03-22T02:55:46.763Z,9.28
2019-03-22T02:57:39.737Z,9.22
2019-03-22T02:58:39.783Z,9.19
2019-03-22T03:00:32.826Z,9.22
2019-03-22T03:01:32.817Z,9.25
2019-03-22T03:03:25.801Z,9.23
2019-03-22T03:04:25.850Z,9.22
2019-03-22T03:06:18.851Z,9.21
2019-03-22T03:07:18.890Z,9.16
2019-03-22T03:09:11.867Z,9.19
2019-03-22T03:10:11.927Z,9.18
2019-03-22T03:12:04.933Z,9.14
2019-03-22T03:13:04.971Z,9.21
2019-03-22T03:14:57.950Z,9.22
2019-03-22T03:15:58.015Z,9.22
2019-03-22T03:17:51.006Z,9.19
2019-03-22T03:18:51.042Z,9.23
2019-03-22T03:20:44.024Z,9.19
2019-03-22T03:21:44.120Z,9.23
2019-03-22T03:23:37.081Z,9.18
2019-03-22T03:24:37.140Z,9.14
2019-03-22T03:26:30.618Z,9.18
2019-03-22T03:27:30.665Z,9.10
2019-03-22T03:29:23.728Z,9.10
2019-03-22T03:30:23.709Z,9.03
2019-03-22T03:32:16.698Z,9.03
2019-03-22T03:33:16.902Z,9.03
2019-03-22T03:35:09.754Z,8.91
2019-03-22T03:36:09.791Z,8.91
2019-03-22T03:38:02.785Z,8.89
2019-03-22T03:39:02.828Z,8.95
2019-03-22T03:40:55.815Z,8.97
2019-03-22T03:41:55.875Z,8.92
2019-03-22T03:43:48.876Z,8.88
2019-03-22T03:44:48.915Z,8.87
2019-03-22T03:46:41.923Z,8.82
2019-03-22T03:47:41.962Z,8.79
2019-03-22T03:49:34.988Z,8.74
2019-03-22T03:50:35.000Z,8.67
2019-03-22T03:52:27.981Z,8.66
2019-03-22T03:53:28.036Z,8.69
2019-03-22T03:55:21.045Z,8.67
2019-03-22T03:56:21.082Z,8.58
2019-03-22T03:58:14.074Z,8.56
2019-03-22T03:59:14.124Z,8.60
2019-03-22T04:01:07.162Z,8.51
2019-03-22T04:02:07.148Z,8.52
2019-03-22T04:04:00.140Z,8.45
2019-03-22T04:05:00.452Z,8.51
2019-03-22T04:06:53.188Z,8.45
2019-03-22T04:07:53.227Z,8.44
2019-03-22T04:09:46.204Z,8.38
2019-03-22T04:10:46.260Z,8.45
2019-03-22T04:12:39.254Z,8.34
2019-03-22T04:13:39.307Z,8.27
2019-03-22T04:15:32.298Z,8.23
2019-03-22T04:16:32.338Z,8.15
2019-03-22T04:18:25.337Z,8.19
2019-03-22T04:19:25.382Z,8.08
2019-03-22T04:21:18.356Z,8.18
2019-03-22T04:22:18.414Z,8.06
2019-03-22T04:24:11.426Z,8.09
2019-03-22T04:25:11.453Z,8.01
2019-03-22T04:27:04.434Z,7.98
2019-03-22T04:28:04.491Z,8.00
2019-03-22T04:29:57.492Z,7.97
2019-03-22T04:30:57.529Z,7.94
2019-03-22T04:32:50.516Z,7.97
2019-03-22T04:33:50.579Z,7.88
2019-03-22T04:35:43.615Z,7.72
2019-03-22T04:36:43.613Z,7.60
2019-03-22T04:38:36.592Z,7.51
2019-03-22T04:39:36.646Z,7.50
2019-03-22T04:41:29.652Z,7.48
2019-03-22T04:42:29.678Z,7.47
2019-03-22T04:44:22.662Z,7.39
2019-03-22T04:45:22.740Z,7.38
2019-03-22T04:47:15.729Z,7.45
2019-03-22T04:48:15.774Z,7.45
2019-03-22T04:50:08.772Z,7.43
2019-03-22T04:51:08.866Z,7.45
2019-03-22T04:53:01.808Z,7.38
2019-03-22T04:54:01.850Z,7.38
2019-03-22T04:55:54.835Z,7.31
2019-03-22T04:56:54.889Z,7.14
2019-03-22T04:58:47.922Z,7.00
2019-03-22T04:59:47.983Z,7.00
2019-03-22T05:01:40.942Z,6.89
2019-03-22T05:02:41.000Z,6.96
2019-03-22T05:04:34.000Z,6.85
2019-03-22T05:05:34.044Z,6.81
2019-03-22T05:07:27.031Z,6.81
2019-03-22T05:08:27.069Z,6.74
2019-03-22T05:10:20.055Z,6.79
2019-03-22T05:11:20.114Z,6.78
2019-03-22T05:13:13.112Z,6.82
2019-03-22T05:14:13.152Z,6.87
2019-03-22T05:16:06.125Z,6.95
2019-03-22T05:17:06.180Z,6.96
2019-03-22T05:18:59.225Z,7.03
2019-03-22T05:19:59.222Z,7.02
2019-03-22T05:21:52.203Z,7.10
2019-03-22T05:22:52.261Z,7.06
2019-03-22T05:24:45.269Z,7.03
2019-03-22T05:25:45.296Z,6.99
2019-03-22T05:27:38.280Z,7.11
2019-03-22T05:28:38.338Z,7.07
2019-03-22T05:30:31.333Z,7.11
2019-03-22T05:31:31.373Z,7.00
2019-03-22T05:33:24.488Z,7.02
2019-03-22T05:34:24.439Z,7.07
2019-03-22T05:36:17.419Z,7.15
2019-03-22T05:37:17.480Z,7.14
2019-03-22T05:39:10.477Z,7.11
2019-03-22T05:40:10.515Z,7.17
2019-03-22T05:42:03.508Z,7.14
2019-03-22T05:43:03.548Z,7.15
2019-03-22T05:44:56.556Z,7.31
2019-03-22T05:45:56.595Z,7.29
2019-03-22T05:47:49.564Z,7.32
2019-03-22T05:48:49.620Z,7.31
2019-03-22T05:50:42.619Z,7.17
2019-03-22T05:51:42.657Z,7.18
2019-03-22T05:53:35.637Z,7.13
2019-03-22T05:54:35.690Z,7.07
2019-03-22T05:56:28.694Z,7.15
2019-03-22T05:57:28.732Z,7.15
2019-03-22T05:59:21.735Z,7.20
2019-03-22T06:00:21.769Z,7.10
2019-03-22T06:02:14.747Z,7.14
2019-03-22T06:03:14.806Z,7.15
2019-03-22T06:05:07.805Z,7.14
2019-03-22T06:06:07.842Z,7.23
2019-03-22T06:08:00.825Z,7.28
2019-03-22T06:09:00.883Z,7.43
2019-03-22T06:10:53.890Z,7.40
2019-03-22T06:11:53.927Z,7.43
2019-03-22T06:13:46.982Z,7.47
2019-03-22T06:14:46.960Z,7.66
2019-03-22T06:16:39.942Z,7.61
2019-03-22T06:17:50.915Z,7.63
2019-03-22T06:19:33.022Z,7.58
2019-03-22T06:20:33.050Z,7.63
2019-03-22T06:22:26.047Z,7.72
2019-03-22T06:23:26.084Z,7.77
2019-03-22T06:25:19.128Z,7.93
2019-03-22T06:26:19.134Z,7.95
2019-03-22T06:28:12.141Z,7.90
2019-03-22T06:29:12.168Z,7.98
2019-03-22T06:31:05.174Z,7.97
2019-03-22T06:32:05.245Z,7.95
2019-03-22T06:33:58.188Z,7.98
2019-03-22T06:34:58.241Z,8.06
2019-03-22T06:36:51.239Z,8.06
2019-03-22T06:37:51.275Z,8.01
2019-03-22T06:39:44.274Z,8.10
2019-03-22T06:40:44.311Z,8.00
2019-03-22T06:42:37.295Z,8.16
2019-03-22T06:43:37.382Z,8.05
2019-03-22T06:45:30.341Z,8.08
2019-03-22T06:46:30.387Z,8.12
2019-03-22T06:48:23.381Z,8.27
2019-03-22T06:49:23.427Z,8.27
2019-03-22T06:51:16.429Z,8.38
2019-03-22T06:52:16.473Z,8.42
2019-03-22T06:54:09.451Z,8.37
2019-03-22T06:55:09.508Z,8.45
2019-03-22T06:57:02.515Z,8.48
2019-03-22T06:58:02.551Z,8.38
2019-03-22T07:00:05.800Z,8.41
2019-03-22T07:00:55.590Z,8.37
2019-03-22T07:02:48.587Z,8.46
2019-03-22T07:03:48.624Z,8.51
2019-03-22T07:05:41.648Z,8.61
2019-03-22T07:06:41.687Z,8.81
2019-03-22T07:08:34.698Z,8.92
2019-03-22T07:09:34.724Z,9.06
2019-03-22T07:11:27.706Z,9.23
2019-03-22T07:12:27.761Z,9.34
2019-03-22T07:14:20.765Z,9.61
2019-03-22T07:15:20.798Z,9.65
2019-03-22T07:17:13.779Z,9.95
2019-03-22T07:18:13.836Z,9.86
2019-03-22T07:20:06.874Z,9.72
2019-03-22T07:21:06.914Z,9.91
2019-03-22T07:22:59.855Z,9.66
2019-03-22T07:23:59.911Z,9.43
2019-03-22T07:25:52.911Z,9.28
2019-03-22T07:26:52.960Z,9.23
2019-03-22T07:28:46.017Z,9.65
2019-03-22T07:29:45.995Z,10.05
2019-03-22T07:31:38.985Z,9.84
2019-03-22T07:32:39.043Z,9.74
2019-03-22T07:34:32.037Z,9.65
2019-03-22T07:35:32.091Z,9.54
2019-03-22T07:37:25.081Z,9.92
2019-03-22T07:38:25.120Z,10.07
2019-03-22T07:40:18.121Z,10.10
2019-03-22T07:41:18.158Z,10.57
2019-03-22T07:43:11.159Z,10.93
2019-03-22T07:44:11.198Z,10.84
2019-03-22T07:46:18.710Z,10.63
2019-03-22T07:47:04.236Z,10.51
2019-03-22T07:48:57.259Z,10.42
2019-03-22T07:49:57.277Z,10.54
2019-03-22T07:51:50.281Z,10.75
2019-03-22T07:52:50.451Z,11.37
2019-03-22T07:54:43.327Z,12.75
2019-03-22T07:55:43.359Z,13.18
2019-03-22T07:57:36.360Z,14.22
2019-03-22T07:58:36.402Z,14.92
2019-03-22T08:00:31.073Z,15.79
2019-03-22T08:01:29.466Z,16.02
2019-03-22T08:03:22.467Z,17.33
2019-03-22T08:04:22.509Z,17.98
2019-03-22T08:06:15.515Z,18.93
2019-03-22T08:07:15.556Z,19.49
2019-03-22T08:09:08.552Z,20.11
2019-03-22T08:10:08.607Z,20.44
2019-03-22T08:12:01.615Z,20.40
2019-03-22T08:13:01.662Z,20.29
2019-03-22T08:14:54.659Z,20.26
2019-03-22T08:15:57.402Z,20.13
2019-03-22T08:17:47.737Z,19.76
2019-03-22T08:18:47.770Z,19.58
2019-03-22T08:20:40.826Z,19.54
2019-03-22T08:21:40.832Z,19.79
2019-03-22T08:23:33.845Z,19.95
2019-03-22T08:24:33.895Z,20.40
2019-03-22T08:26:27.390Z,21.20
2019-03-22T08:27:27.471Z,20.41
2019-03-22T08:29:20.512Z,20.10
2019-03-22T08:30:20.706Z,19.92
2019-03-22T08:32:13.532Z,20.60
2019-03-22T08:33:13.576Z,19.55
2019-03-22T08:35:06.641Z,18.08
2019-03-22T08:36:06.659Z,18.04
2019-03-22T08:37:59.648Z,18.93
2019-03-22T08:38:59.694Z,19.56
2019-03-22T08:40:52.690Z,20.44
2019-03-22T08:41:52.753Z,20.75
2019-03-22T08:43:45.816Z,20.44
2019-03-22T08:44:45.868Z,20.28
2019-03-22T08:46:38.933Z,20.60
2019-03-22T08:47:38.946Z,20.92
2019-03-22T08:49:32.102Z,21.85
2019-03-22T08:50:31.992Z,22.22
2019-03-22T08:52:25.017Z,22.41
2019-03-22T08:53:25.077Z,22.63
2019-03-22T08:55:18.067Z,22.81
2019-03-22T08:56:18.120Z,22.94
2019-03-22T08:58:11.132Z,23.23
2019-03-22T08:59:13.483Z,23.51
2019-03-22T09:01:04.208Z,23.37
2019-03-22T09:02:04.254Z,23.43
2019-03-22T09:03:57.302Z,23.55
2019-03-22T09:04:57.317Z,23.73
2019-03-22T09:06:50.322Z,22.88
2019-03-22T09:07:50.385Z,21.91
2019-03-22T09:09:43.413Z,19.79
2019-03-22T09:10:43.489Z,18.73
2019-03-22T09:12:36.486Z,17.54
2019-03-22T09:13:36.535Z,17.26
2019-03-22T09:15:40.625Z,17.01
2019-03-22T09:16:30.811Z,16.65
2019-03-22T09:18:22.592Z,16.51
2019-03-22T09:19:22.652Z,16.38
2019-03-22T09:21:15.666Z,16.56
2019-03-22T09:22:15.724Z,16.69
2019-03-22T09:24:08.720Z,16.64
2019-03-22T09:25:08.776Z,16.64
2019-03-22T09:27:02.326Z,16.84
2019-03-22T09:28:02.334Z,16.81
2019-03-22T09:29:55.349Z,16.72
2019-03-22T09:30:55.409Z,16.69
2019-03-22T09:32:48.417Z,16.64
2019-03-22T09:33:48.465Z,16.50
2019-03-22T09:35:41.466Z,16.51
2019-03-22T09:36:41.487Z,16.51
2019-03-22T09:38:34.490Z,16.53
2019-03-22T09:39:34.565Z,16.60
2019-03-22T09:41:27.526Z,16.66
2019-03-22T09:42:27.588Z,16.51
2019-03-22T09:44:20.591Z,16.39
2019-03-22T09:45:20.929Z,16.28
2019-03-22T09:47:16.455Z,16.23
2019-03-22T09:48:13.688Z,16.17
2019-03-22T09:50:06.680Z,16.21
2019-03-22T09:51:06.758Z,16.26
2019-03-22T09:52:59.746Z,16.65
2019-03-22T09:53:59.833Z,16.84
2019-03-22T09:55:52.831Z,16.93
2019-03-22T09:56:52.845Z,17.02
2019-03-22T09:58:45.883Z,16.97
2019-03-22T09:59:45.903Z,17.06
2019-03-22T10:01:38.956Z,16.89
2019-03-22T10:02:39.007Z,16.86
2019-03-22T10:04:31.971Z,16.61
2019-03-22T10:05:32.029Z,16.61
2019-03-22T10:07:24.992Z,16.58
2019-03-22T10:08:25.058Z,16.61
2019-03-22T10:10:18.070Z,16.78
2019-03-22T10:11:18.105Z,16.84
2019-03-22T10:13:11.095Z,17.02
2019-03-22T10:14:11.153Z,17.02
2019-03-22T10:16:04.185Z,16.99
2019-03-22T10:17:04.269Z,17.11
2019-03-22T10:18:57.250Z,17.12
2019-03-22T10:19:57.274Z,17.24
2019-03-22T10:21:50.287Z,17.20
2019-03-22T10:22:50.331Z,17.06
2019-03-22T10:24:43.370Z,16.93
2019-03-22T10:25:43.396Z,17.08
2019-03-22T10:27:36.385Z,17.01
2019-03-22T10:28:36.427Z,16.91
2019-03-22T10:30:29.447Z,16.93
2019-03-22T10:31:37.151Z,17.19
2019-03-22T10:33:23.258Z,17.29
2019-03-22T10:34:22.528Z,17.39
2019-03-22T10:36:15.536Z,17.57
2019-03-22T10:37:15.579Z,17.78
2019-03-22T10:39:08.591Z,17.64
2019-03-22T10:40:08.624Z,17.74
2019-03-22T10:42:01.640Z,17.63
2019-03-22T10:43:01.704Z,17.70
2019-03-22T10:44:54.662Z,17.72
2019-03-22T10:45:54.723Z,17.92
2019-03-22T10:47:47.761Z,17.89
2019-03-22T10:48:47.767Z,17.82
2019-03-22T10:50:40.778Z,17.92
2019-03-22T10:51:40.817Z,17.92
2019-03-22T10:53:33.818Z,17.74
2019-03-22T10:54:33.868Z,17.74
2019-03-22T10:56:26.873Z,17.80
2019-03-22T10:57:26.925Z,17.92
2019-03-22T10:59:19.967Z,18.16
2019-03-22T11:00:19.974Z,18.15
2019-03-22T11:02:12.961Z,18.33
2019-03-22T11:03:13.018Z,18.35
2019-03-22T11:05:06.032Z,18.50
2019-03-22T11:06:06.065Z,18.53
2019-03-22T11:07:59.137Z,18.60
2019-03-22T11:08:59.133Z,18.59
2019-03-22T11:10:52.108Z,18.52
2019-03-22T11:11:52.160Z,18.53
2019-03-22T11:13:45.171Z,18.50
2019-03-22T11:14:45.841Z,18.44
2019-03-22T11:16:38.197Z,18.22
2019-03-22T11:17:38.272Z,18.29
2019-03-22T11:19:31.263Z,18.22
2019-03-22T11:20:31.342Z,18.37
2019-03-22T11:22:24.294Z,18.58
2019-03-22T11:23:24.397Z,18.65
2019-03-22T11:25:17.367Z,18.77
2019-03-22T11:26:17.400Z,18.92
2019-03-22T11:28:11.965Z,18.96
2019-03-22T11:29:10.445Z,19.11
2019-03-22T11:31:04.999Z,19.11
2019-03-22T11:32:12.253Z,19.11
2019-03-22T11:33:56.505Z,19.08
2019-03-22T11:34:56.552Z,19.08
2019-03-22T11:36:49.601Z,19.08
2019-03-22T11:37:49.608Z,19.22
2019-03-22T11:39:42.592Z,19.24
2019-03-22T11:40:42.653Z,19.31
2019-03-22T11:42:35.671Z,19.33
2019-03-22T11:43:35.699Z,19.30
2019-03-22T11:45:28.683Z,19.37
2019-03-22T11:46:28.749Z,19.33
2019-03-22T11:48:21.770Z,19.30
2019-03-22T11:49:21.833Z,19.39
2019-03-22T11:51:14.797Z,19.26
2019-03-22T11:52:14.859Z,19.30
2019-03-22T11:54:07.876Z,19.19
2019-03-22T11:55:07.905Z,19.18
2019-03-22T11:57:00.896Z,19.40
2019-03-22T11:58:00.956Z,19.31
2019-03-22T11:59:53.968Z,19.36
2019-03-22T12:00:54.012Z,19.29
2019-03-22T12:02:47.024Z,19.18
2019-03-22T12:03:47.057Z,19.22
2019-03-22T12:05:40.764Z,19.30
2019-03-22T12:06:40.114Z,19.30
2019-03-22T12:08:33.148Z,19.40
2019-03-22T12:09:33.185Z,19.41
2019-03-22T12:11:26.169Z,19.33
2019-03-22T12:12:26.229Z,19.27
2019-03-22T12:14:19.234Z,19.34
2019-03-22T12:15:19.283Z,19.37
2019-03-22T12:17:12.306Z,19.41
2019-03-22T12:18:12.338Z,19.44
2019-03-22T12:20:05.333Z,19.44
2019-03-22T12:21:05.405Z,19.39
2019-03-22T12:22:58.411Z,19.51
2019-03-22T12:23:58.447Z,19.69
2019-03-22T12:25:51.428Z,19.70
2019-03-22T12:26:51.498Z,19.76
2019-03-22T12:28:44.539Z,19.77
2019-03-22T12:29:44.570Z,19.71
2019-03-22T12:31:37.598Z,19.64
2019-03-22T12:32:37.629Z,19.58
2019-03-22T12:34:30.659Z,19.73
2019-03-22T12:35:30.703Z,19.79
2019-03-22T12:37:23.715Z,19.96
2019-03-22T12:38:23.752Z,20.04
2019-03-22T12:40:16.759Z,20.06
2019-03-22T12:41:16.800Z,19.95
2019-03-22T12:43:09.814Z,20.02
2019-03-22T12:44:09.850Z,19.92
2019-03-22T12:46:02.842Z,19.96
2019-03-22T12:47:02.902Z,19.96
2019-03-22T12:48:55.911Z,19.95
2019-03-22T12:49:55.953Z,19.95
2019-03-22T12:51:48.950Z,19.84
2019-03-22T12:52:49.008Z,20.00
2019-03-22T12:54:42.026Z,20.04
2019-03-22T12:55:42.073Z,20.04
2019-03-22T12:57:35.068Z,20.21
2019-03-22T12:58:35.118Z,20.16
2019-03-22T13:00:28.125Z,20.26
2019-03-22T13:01:28.172Z,20.22
2019-03-22T13:03:21.191Z,20.22
2019-03-22T13:04:21.227Z,20.24
2019-03-22T13:06:14.212Z,20.25
2019-03-22T13:07:14.272Z,20.22
2019-03-22T13:09:07.302Z,20.32
2019-03-22T13:10:07.346Z,20.28
2019-03-22T13:12:00.341Z,20.24
2019-03-22T13:13:00.396Z,20.19
2019-03-22T13:14:53.417Z,20.21
2019-03-22T13:15:53.446Z,20.21
2019-03-22T13:17:46.440Z,20.26
2019-03-22T13:18:50.400Z,20.28
2019-03-22T13:20:39.506Z,20.34
2019-03-22T13:21:39.592Z,20.24
2019-03-22T13:23:32.578Z,20.11
2019-03-22T13:24:32.854Z,20.22
2019-03-22T13:26:27.120Z,20.19
2019-03-22T13:27:27.172Z,20.16
2019-03-22T13:29:20.182Z,20.24
2019-03-22T13:30:20.224Z,20.26
2019-03-22T13:32:13.235Z,20.28
2019-03-22T13:33:13.553Z,20.24
2019-03-22T13:35:06.277Z,20.31
2019-03-22T13:36:06.336Z,20.25
2019-03-22T13:37:59.365Z,20.43
2019-03-22T13:38:59.413Z,20.31
2019-03-22T13:40:52.384Z,20.28
2019-03-22T13:41:52.463Z,20.29
2019-03-22T13:43:45.440Z,20.43
2019-03-22T13:44:45.501Z,20.31
2019-03-22T13:46:40.553Z,20.43
2019-03-22T13:47:38.551Z,20.21
2019-03-22T13:49:31.543Z,20.47
2019-03-22T13:50:31.600Z,20.48
2019-03-22T13:52:24.633Z,20.52
2019-03-22T13:53:24.655Z,20.59
2019-03-22T13:55:17.666Z,20.58
2019-03-22T13:56:17.713Z,20.60
2019-03-22T13:58:10.729Z,20.62
2019-03-22T13:59:10.761Z,20.58
2019-03-22T14:01:03.763Z,20.56
2019-03-22T14:02:03.855Z,20.58
2019-03-22T14:03:56.856Z,20.63
2019-03-22T14:04:56.872Z,20.72
2019-03-22T14:06:49.868Z,20.75
2019-03-22T14:07:49.926Z,20.66
2019-03-22T14:09:42.939Z,20.52
2019-03-22T14:10:42.977Z,20.62
2019-03-22T14:12:37.239Z,20.62
2019-03-22T14:13:36.038Z,20.74
2019-03-22T14:15:29.044Z,20.66
2019-03-22T14:16:29.079Z,20.62
2019-03-22T14:18:22.068Z,20.62
2019-03-22T14:19:22.138Z,20.67
2019-03-22T14:21:15.142Z,20.63
2019-03-22T14:22:15.180Z,20.72
2019-03-22T14:24:08.179Z,20.66
2019-03-22T14:25:08.237Z,20.72
2019-03-22T14:27:01.771Z,20.70
2019-03-22T14:28:01.795Z,20.66
2019-03-22T14:29:54.780Z,20.63
2019-03-22T14:30:54.839Z,20.62
2019-03-22T14:32:47.869Z,20.72
2019-03-22T14:33:47.893Z,20.77
2019-03-22T14:35:40.917Z,21.02
2019-03-22T14:36:40.948Z,21.07
2019-03-22T14:38:33.957Z,21.35
2019-03-22T14:39:34.000Z,21.51
2019-03-22T14:41:26.992Z,21.66
2019-03-22T14:42:27.055Z,21.69
2019-03-22T14:44:25.272Z,21.69
2019-03-22T14:45:20.106Z,21.95
2019-03-22T14:47:13.125Z,21.92
2019-03-22T14:48:13.166Z,22.04
2019-03-22T14:50:06.184Z,21.70
2019-03-22T14:51:06.223Z,21.50
2019-03-22T14:52:59.226Z,21.17
2019-03-22T14:53:59.283Z,21.21
2019-03-22T14:55:52.322Z,21.00
2019-03-22T14:56:52.335Z,20.99
2019-03-22T14:58:45.386Z,20.88
2019-03-22T14:59:45.406Z,20.81
2019-03-22T15:01:38.428Z,20.75
2019-03-22T15:02:38.470Z,20.67
2019-03-22T15:04:31.460Z,20.78
2019-03-22T15:05:31.523Z,20.66
2019-03-22T15:07:24.531Z,20.72
2019-03-22T15:08:24.579Z,20.74
2019-03-22T15:10:17.562Z,20.77
2019-03-22T15:11:17.626Z,20.70
2019-03-22T15:13:10.634Z,20.75
2019-03-22T15:14:10.679Z,20.67
2019-03-22T15:16:03.678Z,20.72
2019-03-22T15:17:03.739Z,20.63
2019-03-22T15:18:56.757Z,20.62
2019-03-22T15:19:56.796Z,20.63
2019-03-22T15:21:49.790Z,20.63
2019-03-22T15:22:49.856Z,20.65
2019-03-22T15:24:42.862Z,20.70
2019-03-22T15:25:42.907Z,20.63
2019-03-22T15:27:35.908Z,20.69
2019-03-22T15:28:35.969Z,20.63
2019-03-22T15:30:28.976Z,20.62
2019-03-22T15:31:29.021Z,20.50
2019-03-22T15:33:22.144Z,20.52
2019-03-22T15:34:22.086Z,20.55
2019-03-22T15:36:15.180Z,20.50
2019-03-22T15:37:15.435Z,20.60
2019-03-22T15:39:08.353Z,20.63
2019-03-22T15:40:08.223Z,20.65
2019-03-22T15:42:01.207Z,20.67
2019-03-22T15:43:01.251Z,20.65
2019-03-22T15:44:54.282Z,20.67
2019-03-22T15:45:54.339Z,20.60
2019-03-22T15:47:47.330Z,20.60
2019-03-22T15:48:47.379Z,20.52
2019-03-22T15:50:40.364Z,20.48
2019-03-22T15:51:40.423Z,20.47
2019-03-22T15:53:33.441Z,20.55
2019-03-22T15:54:33.485Z,20.59
2019-03-22T15:56:26.481Z,20.47
2019-03-22T15:57:26.542Z,20.52
2019-03-22T15:59:19.555Z,20.37
2019-03-22T16:00:19.594Z,20.52
2019-03-22T16:02:12.589Z,20.48
2019-03-22T16:03:12.654Z,20.59
2019-03-22T16:05:05.682Z,20.55
2019-03-22T16:06:05.718Z,20.50
2019-03-22T16:07:58.714Z,20.56
2019-03-22T16:08:58.774Z,20.52
2019-03-22T16:10:51.791Z,20.47
2019-03-22T16:11:51.829Z,20.51
2019-03-22T16:13:44.866Z,20.50
2019-03-22T16:14:44.923Z,20.56
2019-03-22T16:16:37.933Z,20.52
2019-03-22T16:17:37.969Z,20.44
2019-03-22T16:19:30.991Z,20.37
2019-03-22T16:20:31.022Z,20.41
2019-03-22T16:22:24.052Z,20.37
2019-03-22T16:23:24.097Z,20.36
2019-03-22T16:25:17.125Z,20.39
2019-03-22T16:26:17.133Z,20.36
2019-03-22T16:28:10.120Z,20.37
2019-03-22T16:29:10.185Z,20.39
2019-03-22T16:31:03.210Z,20.40
2019-03-22T16:32:03.243Z,20.41
2019-03-22T16:33:56.231Z,20.28
2019-03-22T16:34:56.300Z,20.18
2019-03-22T16:36:49.823Z,20.26
2019-03-22T16:37:49.855Z,20.22
2019-03-22T16:39:42.860Z,20.25
2019-03-22T16:40:42.908Z,20.29
2019-03-22T16:42:35.939Z,20.19
2019-03-22T16:43:35.973Z,20.24
2019-03-22T16:45:28.966Z,20.09
2019-03-22T16:46:29.031Z,20.06
2019-03-22T16:48:22.044Z,20.06
2019-03-22T16:49:22.085Z,20.14
2019-03-22T16:51:15.100Z,20.06
2019-03-22T16:52:15.143Z,20.10
2019-03-22T16:54:08.134Z,20.06
2019-03-22T16:55:08.196Z,20.06
2019-03-22T16:57:01.219Z,20.03
2019-03-22T16:58:01.253Z,20.03
2019-03-22T16:59:54.275Z,20.02
2019-03-22T17:00:54.314Z,20.03
2019-03-22T17:02:47.325Z,19.96
2019-03-22T17:03:47.373Z,20.03
2019-03-22T17:05:40.366Z,19.92
2019-03-22T17:06:40.431Z,20.02
2019-03-22T17:08:33.448Z,19.92
2019-03-22T17:09:33.486Z,19.91
2019-03-22T17:11:26.478Z,19.84
2019-03-22T17:12:26.540Z,19.84
2019-03-22T17:14:21.695Z,19.88
2019-03-22T17:15:19.601Z,19.70
2019-03-22T17:17:12.590Z,19.71
2019-03-22T17:18:12.678Z,19.59
2019-03-22T17:20:05.679Z,19.59
2019-03-22T17:21:05.727Z,19.58
2019-03-22T17:22:58.740Z,19.49
2019-03-22T17:23:58.765Z,19.56
2019-03-22T17:25:51.794Z,19.55
2019-03-22T17:26:51.841Z,19.52
2019-03-22T17:28:44.853Z,19.34
2019-03-22T17:29:44.905Z,19.37
2019-03-22T17:31:37.921Z,19.33
2019-03-22T17:32:37.954Z,19.30
2019-03-22T17:34:30.955Z,19.11
2019-03-22T17:35:31.013Z,19.21
2019-03-22T17:37:24.540Z,19.16
2019-03-22T17:38:24.573Z,19.15
2019-03-22T17:40:17.592Z,19.02
2019-03-22T17:41:17.620Z,18.96
2019-03-22T17:43:10.617Z,18.83
2019-03-22T17:44:10.698Z,18.84
2019-03-22T17:46:03.724Z,18.71
2019-03-22T17:47:03.754Z,18.83
2019-03-22T17:48:57.290Z,18.71
2019-03-22T17:49:57.336Z,18.62
2019-03-22T17:51:50.346Z,18.68
2019-03-22T17:52:50.366Z,18.62
2019-03-22T17:54:43.363Z,18.55
2019-03-22T17:55:43.427Z,18.52
2019-03-22T17:57:36.454Z,18.44
2019-03-22T17:58:36.478Z,18.41
2019-03-22T18:00:29.468Z,18.37
2019-03-22T18:01:29.559Z,18.31
2019-03-22T18:03:22.550Z,18.08
2019-03-22T18:04:24.344Z,18.13
2019-03-22T18:06:15.603Z,18.00
2019-03-22T18:07:15.634Z,17.82
2019-03-22T18:09:08.662Z,17.78
2019-03-22T18:10:08.705Z,17.78
2019-03-22T18:12:01.690Z,17.65
2019-03-22T18:13:01.747Z,17.65
2019-03-22T18:14:54.769Z,17.49
2019-03-22T18:15:54.801Z,17.42
2019-03-22T18:17:47.790Z,17.19
2019-03-22T18:18:47.852Z,17.12
2019-03-22T18:20:40.895Z,16.84
2019-03-22T18:21:40.932Z,16.75
2019-03-22T18:23:35.867Z,16.74
2019-03-22T18:24:33.999Z,16.75
2019-03-22T18:26:27.023Z,16.86
2019-03-22T18:27:27.038Z,16.76
2019-03-22T18:29:20.046Z,16.84
2019-03-22T18:30:20.128Z,16.66
2019-03-22T18:32:13.104Z,16.69
2019-03-22T18:33:13.140Z,16.61
2019-03-22T18:35:06.170Z,16.57
2019-03-22T18:36:06.195Z,16.49
2019-03-22T18:37:59.295Z,16.39
2019-03-22T18:38:59.246Z,16.28
2019-03-22T18:40:52.273Z,16.17
2019-03-22T18:41:52.301Z,16.04
2019-03-22T18:43:45.338Z,15.82
2019-03-22T18:44:45.344Z,15.90
2019-03-22T18:46:38.331Z,15.79
2019-03-22T18:47:38.392Z,15.72
2019-03-22T18:49:31.916Z,15.73